sensor_id;sensor_type;location;lat;lon;timestamp;temperature;humidity
63219;DHT22;49320;52.512;13.448;2022-10-18T00:00:20;20.10;76.60
63219;DHT22;49320;52.512;13.448;2022-10-18T00:02:46;20.00;76.60
63219;DHT22;49320;52.512;13.448;2022-10-18T00:05:13;20.10;76.70
63219;DHT22;49320;52.512;13.448;2022-10-18T00:07:40;20.10;76.70
63219;DHT22;49320;52.512;13.448;2022-10-18T00:10:07;20.10;76.80
63219;DHT22;49320;52.512;13.448;2022-10-18T00:12:36;20.10;76.80
63219;DHT22;49320;52.512;13.448;2022-10-18T00:15:04;20.10;76.80
63219;DHT22;49320;52.512;13.448;2022-10-18T00:17:34;20.20;76.90
63219;DHT22;49320;52.512;13.448;2022-10-18T00:20:01;20.10;76.90
63219;DHT22;49320;52.512;13.448;2022-10-18T00:22:29;20.10;76.80
63219;DHT22;49320;52.512;13.448;2022-10-18T00:24:56;20.10;76.80
63219;DHT22;49320;52.512;13.448;2022-10-18T00:27:23;20.20;76.90
63219;DHT22;49320;52.512;13.448;2022-10-18T00:29:53;20.20;76.90
63219;DHT22;49320;52.512;13.448;2022-10-18T00:32:20;20.20;77.20
63219;DHT22;49320;52.512;13.448;2022-10-18T00:34:46;20.20;77.00
63219;DHT22;49320;52.512;13.448;2022-10-18T00:37:13;20.20;77.20
63219;DHT22;49320;52.512;13.448;2022-10-18T00:39:40;20.10;77.30
63219;DHT22;49320;52.512;13.448;2022-10-18T00:42:14;20.20;77.50
63219;DHT22;49320;52.512;13.448;2022-10-18T00:47:11;20.20;78.00
63219;DHT22;49320;52.512;13.448;2022-10-18T00:49:46;20.20;78.30
63219;DHT22;49320;52.512;13.448;2022-10-18T00:52:32;20.30;78.90
63219;DHT22;49320;52.512;13.448;2022-10-18T00:55:04;20.40;79.60
63219;DHT22;49320;52.512;13.448;2022-10-18T00:57:32;20.40;78.80
63219;DHT22;49320;52.512;13.448;2022-10-18T00:59:59;20.40;78.70
63219;DHT22;49320;52.512;13.448;2022-10-18T01:02:27;20.40;78.70
63219;DHT22;49320;52.512;13.448;2022-10-18T01:04:55;20.40;78.70
63219;DHT22;49320;52.512;13.448;2022-10-18T01:10:11;20.60;79.40
63219;DHT22;49320;52.512;13.448;2022-10-18T01:13:23;20.60;79.80
63219;DHT22;49320;52.512;13.448;2022-10-18T01:16:03;20.70;80.10
63219;DHT22;49320;52.512;13.448;2022-10-18T01:18:55;20.70;78.90
63219;DHT22;49320;52.512;13.448;2022-10-18T01:21:49;20.70;79.30
63219;DHT22;49320;52.512;13.448;2022-10-18T01:24:44;20.80;80.30
63219;DHT22;49320;52.512;13.448;2022-10-18T01:27:55;20.80;79.20
63219;DHT22;49320;52.512;13.448;2022-10-18T01:36:55;20.90;79.50
63219;DHT22;49320;52.512;13.448;2022-10-18T01:39:36;20.90;79.00
63219;DHT22;49320;52.512;13.448;2022-10-18T01:42:09;20.90;79.40
63219;DHT22;49320;52.512;13.448;2022-10-18T01:44:40;20.90;78.70
63219;DHT22;49320;52.512;13.448;2022-10-18T01:47:10;20.90;78.60
63219;DHT22;49320;52.512;13.448;2022-10-18T01:49:40;20.90;78.70
63219;DHT22;49320;52.512;13.448;2022-10-18T01:52:11;20.90;78.60
63219;DHT22;49320;52.512;13.448;2022-10-18T01:54:43;20.90;79.00
63219;DHT22;49320;52.512;13.448;2022-10-18T01:57:22;20.90;79.10
63219;DHT22;49320;52.512;13.448;2022-10-18T02:00:03;20.90;78.70
63219;DHT22;49320;52.512;13.448;2022-10-18T02:02:56;20.90;78.90
63219;DHT22;49320;52.512;13.448;2022-10-18T02:05:50;21.10;79.80
63219;DHT22;49320;52.512;13.448;2022-10-18T02:11:06;20.90;79.30
63219;DHT22;49320;52.512;13.448;2022-10-18T02:13:50;20.90;79.50
63219;DHT22;49320;52.512;13.448;2022-10-18T02:16:25;20.90;80.20
63219;DHT22;49320;52.512;13.448;2022-10-18T02:19:29;20.90;79.60
63219;DHT22;49320;52.512;13.448;2022-10-18T02:22:01;20.90;80.70
63219;DHT22;49320;52.512;13.448;2022-10-18T02:24:34;20.90;79.50
63219;DHT22;49320;52.512;13.448;2022-10-18T02:27:08;20.90;80.20
63219;DHT22;49320;52.512;13.448;2022-10-18T02:29:35;20.80;79.70
63219;DHT22;49320;52.512;13.448;2022-10-18T02:32:15;20.90;79.80
63219;DHT22;49320;52.512;13.448;2022-10-18T02:37:36;20.80;80.30
63219;DHT22;49320;52.512;13.448;2022-10-18T02:40:06;20.80;80.50
63219;DHT22;49320;52.512;13.448;2022-10-18T02:42:39;20.80;80.40
63219;DHT22;49320;52.512;13.448;2022-10-18T02:45:12;20.80;80.50
63219;DHT22;49320;52.512;13.448;2022-10-18T02:47:40;20.80;80.40
63219;DHT22;49320;52.512;13.448;2022-10-18T02:50:07;20.80;80.50
63219;DHT22;49320;52.512;13.448;2022-10-18T02:52:34;20.80;80.50
63219;DHT22;49320;52.512;13.448;2022-10-18T02:55:01;20.80;80.50
63219;DHT22;49320;52.512;13.448;2022-10-18T02:57:29;20.80;80.50
63219;DHT22;49320;52.512;13.448;2022-10-18T02:59:56;20.80;80.50
63219;DHT22;49320;52.512;13.448;2022-10-18T03:02:23;20.80;80.60
63219;DHT22;49320;52.512;13.448;2022-10-18T03:04:50;20.80;80.70
63219;DHT22;49320;52.512;13.448;2022-10-18T03:07:17;20.80;80.90
63219;DHT22;49320;52.512;13.448;2022-10-18T03:09:44;20.70;80.90
63219;DHT22;49320;52.512;13.448;2022-10-18T03:12:11;20.70;81.00
63219;DHT22;49320;52.512;13.448;2022-10-18T03:14:38;20.70;81.20
63219;DHT22;49320;52.512;13.448;2022-10-18T03:17:05;20.70;81.30
63219;DHT22;49320;52.512;13.448;2022-10-18T03:19:32;20.70;81.30
63219;DHT22;49320;52.512;13.448;2022-10-18T03:21:58;20.70;81.40
63219;DHT22;49320;52.512;13.448;2022-10-18T03:24:25;20.70;81.40
63219;DHT22;49320;52.512;13.448;2022-10-18T03:26:52;20.70;81.50
63219;DHT22;49320;52.512;13.448;2022-10-18T03:29:19;20.60;81.50
63219;DHT22;49320;52.512;13.448;2022-10-18T03:31:46;20.60;81.60
63219;DHT22;49320;52.512;13.448;2022-10-18T03:34:13;20.60;81.80
63219;DHT22;49320;52.512;13.448;2022-10-18T03:36:41;20.60;81.90
63219;DHT22;49320;52.512;13.448;2022-10-18T03:39:08;20.60;82.10
63219;DHT22;49320;52.512;13.448;2022-10-18T03:41:36;20.60;82.20
63219;DHT22;49320;52.512;13.448;2022-10-18T03:44:03;20.50;82.10
63219;DHT22;49320;52.512;13.448;2022-10-18T03:46:30;20.50;82.10
63219;DHT22;49320;52.512;13.448;2022-10-18T03:48:57;20.60;82.20
63219;DHT22;49320;52.512;13.448;2022-10-18T03:51:23;20.40;82.10
63219;DHT22;49320;52.512;13.448;2022-10-18T03:53:50;20.50;82.30
63219;DHT22;49320;52.512;13.448;2022-10-18T03:56:17;20.50;82.50
63219;DHT22;49320;52.512;13.448;2022-10-18T03:58:44;20.50;82.40
63219;DHT22;49320;52.512;13.448;2022-10-18T04:01:11;20.40;82.40
63219;DHT22;49320;52.512;13.448;2022-10-18T04:03:38;20.40;82.40
63219;DHT22;49320;52.512;13.448;2022-10-18T04:06:04;20.40;82.60
63219;DHT22;49320;52.512;13.448;2022-10-18T04:08:33;20.40;82.60
63219;DHT22;49320;52.512;13.448;2022-10-18T04:11:04;20.30;82.50
63219;DHT22;49320;52.512;13.448;2022-10-18T04:13:36;20.30;83.30
63219;DHT22;49320;52.512;13.448;2022-10-18T04:16:03;20.20;83.10
63219;DHT22;49320;52.512;13.448;2022-10-18T04:18:30;20.20;83.00
63219;DHT22;49320;52.512;13.448;2022-10-18T04:20:57;20.20;83.20
63219;DHT22;49320;52.512;13.448;2022-10-18T04:23:24;20.20;84.00
63219;DHT22;49320;52.512;13.448;2022-10-18T04:25:51;20.10;83.30
63219;DHT22;49320;52.512;13.448;2022-10-18T04:28:18;20.20;83.50
63219;DHT22;49320;52.512;13.448;2022-10-18T04:30:49;20.10;83.50
63219;DHT22;49320;52.512;13.448;2022-10-18T04:33:18;20.10;84.10
63219;DHT22;49320;52.512;13.448;2022-10-18T04:35:45;20.00;83.80
63219;DHT22;49320;52.512;13.448;2022-10-18T04:38:12;20.00;83.90
63219;DHT22;49320;52.512;13.448;2022-10-18T04:40:40;20.00;83.90
63219;DHT22;49320;52.512;13.448;2022-10-18T04:43:07;20.00;84.20
63219;DHT22;49320;52.512;13.448;2022-10-18T04:45:34;19.90;84.30
63219;DHT22;49320;52.512;13.448;2022-10-18T04:48:01;19.90;84.30
63219;DHT22;49320;52.512;13.448;2022-10-18T04:50:28;20.00;84.30
63219;DHT22;49320;52.512;13.448;2022-10-18T04:52:55;19.90;84.30
63219;DHT22;49320;52.512;13.448;2022-10-18T04:55:22;19.90;84.30
63219;DHT22;49320;52.512;13.448;2022-10-18T04:57:49;19.90;84.30
63219;DHT22;49320;52.512;13.448;2022-10-18T05:00:15;19.90;84.50
63219;DHT22;49320;52.512;13.448;2022-10-18T05:02:42;19.80;84.60
63219;DHT22;49320;52.512;13.448;2022-10-18T05:05:09;19.90;84.90
63219;DHT22;49320;52.512;13.448;2022-10-18T05:07:39;19.80;85.00
63219;DHT22;49320;52.512;13.448;2022-10-18T05:10:06;19.80;84.90
63219;DHT22;49320;52.512;13.448;2022-10-18T05:12:33;19.80;84.90
63219;DHT22;49320;52.512;13.448;2022-10-18T05:15:00;19.90;84.90
63219;DHT22;49320;52.512;13.448;2022-10-18T05:17:28;19.80;84.90
63219;DHT22;49320;52.512;13.448;2022-10-18T05:19:55;19.80;85.00
63219;DHT22;49320;52.512;13.448;2022-10-18T05:22:22;19.80;85.20
63219;DHT22;49320;52.512;13.448;2022-10-18T05:24:49;19.70;85.20
63219;DHT22;49320;52.512;13.448;2022-10-18T05:27:15;19.70;85.20
63219;DHT22;49320;52.512;13.448;2022-10-18T05:29:42;19.70;85.40
63219;DHT22;49320;52.512;13.448;2022-10-18T05:32:09;19.70;85.60
63219;DHT22;49320;52.512;13.448;2022-10-18T05:34:36;19.70;85.60
63219;DHT22;49320;52.512;13.448;2022-10-18T05:37:03;19.70;85.70
63219;DHT22;49320;52.512;13.448;2022-10-18T05:39:29;19.70;85.90
63219;DHT22;49320;52.512;13.448;2022-10-18T05:41:56;19.70;86.10
63219;DHT22;49320;52.512;13.448;2022-10-18T05:44:23;19.70;86.20
63219;DHT22;49320;52.512;13.448;2022-10-18T05:46:50;19.60;86.30
63219;DHT22;49320;52.512;13.448;2022-10-18T05:49:17;19.70;86.40
63219;DHT22;49320;52.512;13.448;2022-10-18T05:51:44;19.60;86.30
63219;DHT22;49320;52.512;13.448;2022-10-18T05:54:11;19.60;86.40
63219;DHT22;49320;52.512;13.448;2022-10-18T05:56:39;19.60;86.60
63219;DHT22;49320;52.512;13.448;2022-10-18T05:59:06;19.60;86.60
63219;DHT22;49320;52.512;13.448;2022-10-18T06:01:39;19.60;86.80
63219;DHT22;49320;52.512;13.448;2022-10-18T06:04:08;19.60;86.90
63219;DHT22;49320;52.512;13.448;2022-10-18T06:06:38;19.60;87.00
63219;DHT22;49320;52.512;13.448;2022-10-18T06:09:06;19.60;87.00
63219;DHT22;49320;52.512;13.448;2022-10-18T06:11:34;19.60;87.10
63219;DHT22;49320;52.512;13.448;2022-10-18T06:14:02;19.60;87.30
63219;DHT22;49320;52.512;13.448;2022-10-18T06:16:29;19.60;87.40
63219;DHT22;49320;52.512;13.448;2022-10-18T06:18:58;19.60;87.40
63219;DHT22;49320;52.512;13.448;2022-10-18T06:21:25;19.50;87.50
63219;DHT22;49320;52.512;13.448;2022-10-18T06:23:56;19.50;87.60
63219;DHT22;49320;52.512;13.448;2022-10-18T06:26:26;19.50;88.10
63219;DHT22;49320;52.512;13.448;2022-10-18T06:28:53;19.50;88.00
63219;DHT22;49320;52.512;13.448;2022-10-18T06:31:20;19.50;87.70
63219;DHT22;49320;52.512;13.448;2022-10-18T06:33:47;19.50;87.80
63219;DHT22;49320;52.512;13.448;2022-10-18T06:36:19;19.50;88.00
63219;DHT22;49320;52.512;13.448;2022-10-18T06:38:50;19.50;88.60
63219;DHT22;49320;52.512;13.448;2022-10-18T06:41:17;19.40;88.00
63219;DHT22;49320;52.512;13.448;2022-10-18T06:43:49;19.50;88.20
63219;DHT22;49320;52.512;13.448;2022-10-18T06:46:17;19.50;88.80
63219;DHT22;49320;52.512;13.448;2022-10-18T06:48:44;19.50;88.40
63219;DHT22;49320;52.512;13.448;2022-10-18T06:51:11;19.40;88.40
63219;DHT22;49320;52.512;13.448;2022-10-18T06:53:39;19.40;88.50
63219;DHT22;49320;52.512;13.448;2022-10-18T06:56:18;21.30;90.00
63219;DHT22;49320;52.512;13.448;2022-10-18T06:58:45;19.50;88.80
63219;DHT22;49320;52.512;13.448;2022-10-18T07:01:14;19.50;88.90
63219;DHT22;49320;52.512;13.448;2022-10-18T07:03:44;19.50;89.20
63219;DHT22;49320;52.512;13.448;2022-10-18T07:06:15;19.50;89.10
63219;DHT22;49320;52.512;13.448;2022-10-18T07:08:43;19.50;89.10
63219;DHT22;49320;52.512;13.448;2022-10-18T07:11:16;19.50;89.00
63219;DHT22;49320;52.512;13.448;2022-10-18T07:13:45;19.50;89.50
63219;DHT22;49320;52.512;13.448;2022-10-18T07:16:14;19.50;89.00
63219;DHT22;49320;52.512;13.448;2022-10-18T07:18:49;19.50;89.30
63219;DHT22;49320;52.512;13.448;2022-10-18T07:21:21;19.50;89.60
63219;DHT22;49320;52.512;13.448;2022-10-18T07:23:50;19.60;89.80
63219;DHT22;49320;52.512;13.448;2022-10-18T07:26:29;19.60;89.40
63219;DHT22;49320;52.512;13.448;2022-10-18T07:29:00;19.60;90.00
63219;DHT22;49320;52.512;13.448;2022-10-18T07:31:30;19.60;89.50
63219;DHT22;49320;52.512;13.448;2022-10-18T07:33:57;19.60;89.20
63219;DHT22;49320;52.512;13.448;2022-10-18T07:36:24;19.60;89.20
63219;DHT22;49320;52.512;13.448;2022-10-18T07:38:52;19.60;89.20
63219;DHT22;49320;52.512;13.448;2022-10-18T07:41:19;19.60;89.20
63219;DHT22;49320;52.512;13.448;2022-10-18T07:43:49;19.60;89.20
63219;DHT22;49320;52.512;13.448;2022-10-18T07:46:19;19.60;89.40
63219;DHT22;49320;52.512;13.448;2022-10-18T07:48:47;19.70;89.40
63219;DHT22;49320;52.512;13.448;2022-10-18T07:51:14;19.70;89.30
63219;DHT22;49320;52.512;13.448;2022-10-18T07:53:41;19.70;89.30
63219;DHT22;49320;52.512;13.448;2022-10-18T07:56:11;19.80;89.40
63219;DHT22;49320;52.512;13.448;2022-10-18T07:58:43;19.90;89.50
63219;DHT22;49320;52.512;13.448;2022-10-18T08:01:11;19.90;89.10
63219;DHT22;49320;52.512;13.448;2022-10-18T08:03:40;19.90;89.10
63219;DHT22;49320;52.512;13.448;2022-10-18T08:06:09;19.90;89.20
63219;DHT22;49320;52.512;13.448;2022-10-18T08:08:38;18.70;88.40
63219;DHT22;49320;52.512;13.448;2022-10-18T08:11:17;19.90;89.20
63219;DHT22;49320;52.512;13.448;2022-10-18T08:13:46;19.90;89.60
63219;DHT22;49320;52.512;13.448;2022-10-18T08:16:22;19.90;89.00
63219;DHT22;49320;52.512;13.448;2022-10-18T08:18:50;19.90;89.40
63219;DHT22;49320;52.512;13.448;2022-10-18T08:21:19;19.90;88.90
63219;DHT22;49320;52.512;13.448;2022-10-18T08:23:47;19.90;89.10
63219;DHT22;49320;52.512;13.448;2022-10-18T08:26:16;19.90;89.10
63219;DHT22;49320;52.512;13.448;2022-10-18T08:28:44;19.90;89.20
63219;DHT22;49320;52.512;13.448;2022-10-18T08:31:23;20.00;89.10
63219;DHT22;49320;52.512;13.448;2022-10-18T08:33:54;19.90;89.10
63219;DHT22;49320;52.512;13.448;2022-10-18T08:36:22;19.90;89.30
63219;DHT22;49320;52.512;13.448;2022-10-18T08:38:49;19.80;89.10
63219;DHT22;49320;52.512;13.448;2022-10-18T08:41:24;19.90;89.20
63219;DHT22;49320;52.512;13.448;2022-10-18T08:44:23;19.80;89.60
63219;DHT22;49320;52.512;13.448;2022-10-18T08:47:01;19.80;90.00
63219;DHT22;49320;52.512;13.448;2022-10-18T08:49:44;19.80;89.70
63219;DHT22;49320;52.512;13.448;2022-10-18T08:58:19;19.80;90.10
63219;DHT22;49320;52.512;13.448;2022-10-18T09:12:54;19.60;89.30
63219;DHT22;49320;52.512;13.448;2022-10-18T09:21:23;19.50;90.00
63219;DHT22;49320;52.512;13.448;2022-10-18T09:24:10;19.50;89.20
63219;DHT22;49320;52.512;13.448;2022-10-18T09:26:44;19.50;90.00
63219;DHT22;49320;52.512;13.448;2022-10-18T09:32:39;19.50;90.20
63219;DHT22;49320;52.512;13.448;2022-10-18T09:35:23;19.50;90.00
63219;DHT22;49320;52.512;13.448;2022-10-18T09:38:01;19.40;90.10
63219;DHT22;49320;52.512;13.448;2022-10-18T09:40:33;19.50;90.00
63219;DHT22;49320;52.512;13.448;2022-10-18T09:43:16;19.40;90.00
63219;DHT22;49320;52.512;13.448;2022-10-18T09:45:47;19.40;90.30
63219;DHT22;49320;52.512;13.448;2022-10-18T09:48:28;19.30;90.00
63219;DHT22;49320;52.512;13.448;2022-10-18T09:51:14;19.40;90.30
63219;DHT22;49320;52.512;13.448;2022-10-18T09:57:15;19.40;90.80
63219;DHT22;49320;52.512;13.448;2022-10-18T09:59:49;19.40;90.70
63219;DHT22;49320;52.512;13.448;2022-10-18T10:02:18;19.40;90.20
63219;DHT22;49320;52.512;13.448;2022-10-18T10:04:50;19.40;90.30
63219;DHT22;49320;52.512;13.448;2022-10-18T10:07:34;19.40;90.30
63219;DHT22;49320;52.512;13.448;2022-10-18T10:13:18;19.40;90.70
63219;DHT22;49320;52.512;13.448;2022-10-18T10:16:02;20.70;91.10
63219;DHT22;49320;52.512;13.448;2022-10-18T10:18:35;19.40;90.50
63219;DHT22;49320;52.512;13.448;2022-10-18T10:21:13;19.40;90.30
63219;DHT22;49320;52.512;13.448;2022-10-18T10:23:56;19.40;90.50
63219;DHT22;49320;52.512;13.448;2022-10-18T10:26:28;19.40;90.50
63219;DHT22;49320;52.512;13.448;2022-10-18T10:28:57;19.40;90.40
63219;DHT22;49320;52.512;13.448;2022-10-18T10:31:31;19.40;90.30
63219;DHT22;49320;52.512;13.448;2022-10-18T10:36:51;19.40;90.50
63219;DHT22;49320;52.512;13.448;2022-10-18T10:39:22;19.40;90.70
63219;DHT22;49320;52.512;13.448;2022-10-18T10:41:56;19.30;90.50
63219;DHT22;49320;52.512;13.448;2022-10-18T10:44:31;19.30;90.60
63219;DHT22;49320;52.512;13.448;2022-10-18T10:47:01;19.30;90.70
63219;DHT22;49320;52.512;13.448;2022-10-18T10:49:45;19.30;90.50
63219;DHT22;49320;52.512;13.448;2022-10-18T10:52:18;19.30;91.00
63219;DHT22;49320;52.512;13.448;2022-10-18T10:55:04;19.30;90.80
63219;DHT22;49320;52.512;13.448;2022-10-18T10:58:00;19.30;90.70
63219;DHT22;49320;52.512;13.448;2022-10-18T11:00:42;19.30;90.60
63219;DHT22;49320;52.512;13.448;2022-10-18T11:03:15;19.30;90.90
63219;DHT22;49320;52.512;13.448;2022-10-18T11:05:59;19.30;90.90
63219;DHT22;49320;52.512;13.448;2022-10-18T11:08:34;19.30;90.70
63219;DHT22;49320;52.512;13.448;2022-10-18T11:11:21;19.40;91.10
63219;DHT22;49320;52.512;13.448;2022-10-18T11:13:58;19.40;91.30
63219;DHT22;49320;52.512;13.448;2022-10-18T11:17:28;19.40;91.00
63219;DHT22;49320;52.512;13.448;2022-10-18T11:23:09;19.50;91.00
63219;DHT22;49320;52.512;13.448;2022-10-18T11:31:39;19.50;91.10
63219;DHT22;49320;52.512;13.448;2022-10-18T11:34:37;19.50;91.10
63219;DHT22;49320;52.512;13.448;2022-10-18T11:37:30;19.50;91.10
63219;DHT22;49320;52.512;13.448;2022-10-18T11:40:17;19.50;91.00
63219;DHT22;49320;52.512;13.448;2022-10-18T11:46:13;19.60;91.10
63219;DHT22;49320;52.512;13.448;2022-10-18T11:55:01;19.60;90.60
63219;DHT22;49320;52.512;13.448;2022-10-18T11:57:49;19.50;90.60
63219;DHT22;49320;52.512;13.448;2022-10-18T12:04:10;19.50;90.60
63219;DHT22;49320;52.512;13.448;2022-10-18T12:06:42;19.50;90.90
63219;DHT22;49320;52.512;13.448;2022-10-18T12:09:41;19.50;90.60
63219;DHT22;49320;52.512;13.448;2022-10-18T12:12:18;19.50;91.00
63219;DHT22;49320;52.512;13.448;2022-10-18T12:15:00;19.60;90.70
63219;DHT22;49320;52.512;13.448;2022-10-18T12:17:47;19.60;90.80
63219;DHT22;49320;52.512;13.448;2022-10-18T12:25:33;19.60;91.00
63219;DHT22;49320;52.512;13.448;2022-10-18T12:31:25;19.70;91.10
63219;DHT22;49320;52.512;13.448;2022-10-18T12:37:06;19.80;91.00
63219;DHT22;49320;52.512;13.448;2022-10-18T12:39:46;19.80;91.00
63219;DHT22;49320;52.512;13.448;2022-10-18T12:42:41;19.80;90.80
63219;DHT22;49320;52.512;13.448;2022-10-18T12:45:23;19.80;90.90
63219;DHT22;49320;52.512;13.448;2022-10-18T12:47:53;19.80;90.80
63219;DHT22;49320;52.512;13.448;2022-10-18T12:50:34;19.80;90.60
63219;DHT22;49320;52.512;13.448;2022-10-18T12:53:15;19.80;90.70
63219;DHT22;49320;52.512;13.448;2022-10-18T12:55:49;19.90;90.90
63219;DHT22;49320;52.512;13.448;2022-10-18T12:58:28;19.80;90.80
63219;DHT22;49320;52.512;13.448;2022-10-18T13:01:02;19.90;90.90
63219;DHT22;49320;52.512;13.448;2022-10-18T13:03:49;19.90;91.00
63219;DHT22;49320;52.512;13.448;2022-10-18T13:06:19;19.90;91.00
63219;DHT22;49320;52.512;13.448;2022-10-18T13:08:46;19.90;90.80
63219;DHT22;49320;52.512;13.448;2022-10-18T13:11:26;20.00;90.80
63219;DHT22;49320;52.512;13.448;2022-10-18T13:17:46;20.10;91.10
63219;DHT22;49320;52.512;13.448;2022-10-18T13:20:37;20.10;90.60
63219;DHT22;49320;52.512;13.448;2022-10-18T13:23:36;20.10;90.40
63219;DHT22;49320;52.512;13.448;2022-10-18T13:26:27;20.10;90.40
63219;DHT22;49320;52.512;13.448;2022-10-18T13:30:02;20.10;90.20
63219;DHT22;49320;52.512;13.448;2022-10-18T13:33:08;20.10;90.40
63219;DHT22;49320;52.512;13.448;2022-10-18T13:35:49;20.10;90.50
63219;DHT22;49320;52.512;13.448;2022-10-18T13:38:30;20.10;90.30
63219;DHT22;49320;52.512;13.448;2022-10-18T13:46:19;20.20;90.40
63219;DHT22;49320;52.512;13.448;2022-10-18T13:52:32;20.30;90.10
63219;DHT22;49320;52.512;13.448;2022-10-18T13:58:09;20.30;90.00
63219;DHT22;49320;52.512;13.448;2022-10-18T14:01:02;20.30;89.60
63219;DHT22;49320;52.512;13.448;2022-10-18T14:04:29;20.40;89.50
63219;DHT22;49320;52.512;13.448;2022-10-18T14:07:06;20.40;89.30
63219;DHT22;49320;52.512;13.448;2022-10-18T14:09:49;20.40;89.10
63219;DHT22;49320;52.512;13.448;2022-10-18T14:12:49;20.40;88.20
63219;DHT22;49320;52.512;13.448;2022-10-18T14:15:27;20.40;88.30
63219;DHT22;49320;52.512;13.448;2022-10-18T14:18:25;20.40;88.30
63219;DHT22;49320;52.512;13.448;2022-10-18T14:21:07;20.40;88.20
63219;DHT22;49320;52.512;13.448;2022-10-18T14:23:47;20.40;88.20
63219;DHT22;49320;52.512;13.448;2022-10-18T14:26:17;20.40;88.10
63219;DHT22;49320;52.512;13.448;2022-10-18T14:29:01;20.30;87.90
63219;DHT22;49320;52.512;13.448;2022-10-18T14:31:31;20.40;87.50
63219;DHT22;49320;52.512;13.448;2022-10-18T14:34:00;20.40;87.20
63219;DHT22;49320;52.512;13.448;2022-10-18T14:36:39;20.30;86.90
63219;DHT22;49320;52.512;13.448;2022-10-18T14:39:18;20.30;86.30
63219;DHT22;49320;52.512;13.448;2022-10-18T14:41:50;20.30;85.70
63219;DHT22;49320;52.512;13.448;2022-10-18T14:44:27;20.20;85.50
63219;DHT22;49320;52.512;13.448;2022-10-18T14:47:14;20.10;85.00
63219;DHT22;49320;52.512;13.448;2022-10-18T14:49:44;19.90;84.50
63219;DHT22;49320;52.512;13.448;2022-10-18T14:52:16;19.90;85.40
63219;DHT22;49320;52.512;13.448;2022-10-18T14:54:49;19.90;85.40
63219;DHT22;49320;52.512;13.448;2022-10-18T14:57:21;19.60;85.40
63219;DHT22;49320;52.512;13.448;2022-10-18T14:59:53;19.70;85.40
63219;DHT22;49320;52.512;13.448;2022-10-18T15:02:26;19.60;85.70
63219;DHT22;49320;52.512;13.448;2022-10-18T15:05:18;19.60;85.80
63219;DHT22;49320;52.512;13.448;2022-10-18T15:07:47;19.50;85.40
63219;DHT22;49320;52.512;13.448;2022-10-18T15:10:29;19.40;85.80
63219;DHT22;49320;52.512;13.448;2022-10-18T15:12:58;19.30;85.80
63219;DHT22;49320;52.512;13.448;2022-10-18T15:15:37;19.30;86.10
63219;DHT22;49320;52.512;13.448;2022-10-18T15:18:06;19.30;86.20
63219;DHT22;49320;52.512;13.448;2022-10-18T15:20:35;19.30;86.30
63219;DHT22;49320;52.512;13.448;2022-10-18T15:23:27;19.30;86.30
63219;DHT22;49320;52.512;13.448;2022-10-18T15:26:06;19.30;86.10
63219;DHT22;49320;52.512;13.448;2022-10-18T15:28:40;19.30;86.50
63219;DHT22;49320;52.512;13.448;2022-10-18T15:31:28;19.30;86.50
63219;DHT22;49320;52.512;13.448;2022-10-18T15:34:19;19.30;86.60
63219;DHT22;49320;52.512;13.448;2022-10-18T15:36:50;19.20;86.60
63219;DHT22;49320;52.512;13.448;2022-10-18T15:39:20;19.20;86.70
63219;DHT22;49320;52.512;13.448;2022-10-18T15:41:56;19.30;86.80
63219;DHT22;49320;52.512;13.448;2022-10-18T15:44:34;19.20;87.00
63219;DHT22;49320;52.512;13.448;2022-10-18T15:47:18;19.20;87.00
63219;DHT22;49320;52.512;13.448;2022-10-18T15:49:51;19.10;86.90
63219;DHT22;49320;52.512;13.448;2022-10-18T15:52:40;19.10;87.20
63219;DHT22;49320;52.512;13.448;2022-10-18T15:58:46;19.00;87.40
63219;DHT22;49320;52.512;13.448;2022-10-18T16:01:30;19.00;87.70
63219;DHT22;49320;52.512;13.448;2022-10-18T16:04:29;18.90;87.40
63219;DHT22;49320;52.512;13.448;2022-10-18T16:06:58;18.80;87.20
63219;DHT22;49320;52.512;13.448;2022-10-18T16:09:27;17.70;86.60
63219;DHT22;49320;52.512;13.448;2022-10-18T16:11:55;18.70;87.50
63219;DHT22;49320;52.512;13.448;2022-10-18T16:14:24;18.60;87.90
63219;DHT22;49320;52.512;13.448;2022-10-18T16:16:54;18.60;88.50
63219;DHT22;49320;52.512;13.448;2022-10-18T16:19:26;18.60;87.90
63219;DHT22;49320;52.512;13.448;2022-10-18T16:21:53;18.50;88.00
63219;DHT22;49320;52.512;13.448;2022-10-18T16:24:21;18.50;88.70
63219;DHT22;49320;52.512;13.448;2022-10-18T16:26:48;18.40;88.10
63219;DHT22;49320;52.512;13.448;2022-10-18T16:29:17;18.40;88.30
63219;DHT22;49320;52.512;13.448;2022-10-18T16:31:50;18.30;88.30
63219;DHT22;49320;52.512;13.448;2022-10-18T16:34:19;18.30;88.40
63219;DHT22;49320;52.512;13.448;2022-10-18T16:36:45;18.20;88.40
63219;DHT22;49320;52.512;13.448;2022-10-18T16:39:18;18.20;88.40
63219;DHT22;49320;52.512;13.448;2022-10-18T16:41:46;18.20;88.50
63219;DHT22;49320;52.512;13.448;2022-10-18T16:44:14;18.10;88.40
63219;DHT22;49320;52.512;13.448;2022-10-18T16:46:42;18.10;88.50
63219;DHT22;49320;52.512;13.448;2022-10-18T16:49:21;18.10;88.60
63219;DHT22;49320;52.512;13.448;2022-10-18T16:51:51;18.00;88.80
63219;DHT22;49320;52.512;13.448;2022-10-18T16:54:19;17.90;88.60
63219;DHT22;49320;52.512;13.448;2022-10-18T16:56:46;17.90;88.70
63219;DHT22;49320;52.512;13.448;2022-10-18T16:59:29;17.80;88.70
63219;DHT22;49320;52.512;13.448;2022-10-18T17:01:57;17.80;89.00
63219;DHT22;49320;52.512;13.448;2022-10-18T17:04:24;17.80;88.90
63219;DHT22;49320;52.512;13.448;2022-10-18T17:06:51;17.70;88.90
63219;DHT22;49320;52.512;13.448;2022-10-18T17:09:21;17.70;89.10
63219;DHT22;49320;52.512;13.448;2022-10-18T17:11:48;17.60;89.70
63219;DHT22;49320;52.512;13.448;2022-10-18T17:14:15;17.60;89.10
63219;DHT22;49320;52.512;13.448;2022-10-18T17:16:42;17.60;89.10
63219;DHT22;49320;52.512;13.448;2022-10-18T17:19:14;17.50;89.20
63219;DHT22;49320;52.512;13.448;2022-10-18T17:21:41;17.50;89.30
63219;DHT22;49320;52.512;13.448;2022-10-18T17:24:07;17.50;89.30
63219;DHT22;49320;52.512;13.448;2022-10-18T17:26:34;17.40;89.30
63219;DHT22;49320;52.512;13.448;2022-10-18T17:29:06;17.30;89.30
63219;DHT22;49320;52.512;13.448;2022-10-18T17:31:33;17.30;89.50
63219;DHT22;49320;52.512;13.448;2022-10-18T17:34:01;17.40;89.50
63219;DHT22;49320;52.512;13.448;2022-10-18T17:36:30;17.30;89.50
63219;DHT22;49320;52.512;13.448;2022-10-18T17:38:58;17.30;89.60
63219;DHT22;49320;52.512;13.448;2022-10-18T17:41:25;17.30;89.60